createdAt,value
2023-01-05T00:02:12.454Z,3.90
2023-01-05T00:04:40.681Z,3.20
2023-01-05T00:07:08.861Z,2.93
2023-01-05T00:09:38.818Z,3.07
2023-01-05T00:12:24.740Z,3.60
2023-01-05T00:15:22.067Z,2.63
2023-01-05T00:18:07.819Z,3.37
2023-01-05T00:20:53.855Z,4.47
2023-01-05T00:23:22.327Z,3.97
2023-01-05T00:25:51.828Z,3.23
2023-01-05T00:28:20.024Z,3.17
2023-01-05T00:30:48.713Z,3.47
2023-01-05T00:33:17.866Z,2.87
2023-01-05T00:35:46.055Z,3.20
2023-01-05T00:38:14.394Z,3.33
2023-01-05T00:40:42.557Z,3.63
2023-01-05T00:43:12.065Z,3.57
2023-01-05T00:45:40.264Z,2.90
2023-01-05T00:48:08.445Z,3.20
2023-01-05T00:50:36.605Z,3.73
2023-01-05T00:53:04.765Z,3.03
2023-01-05T00:55:32.931Z,3.27
2023-01-05T00:58:01.078Z,4.10
2023-01-05T01:00:30.562Z,3.20
2023-01-05T01:02:58.764Z,2.90
2023-01-05T01:05:26.929Z,3.40
2023-01-05T01:07:55.121Z,3.13
2023-01-05T01:10:25.294Z,3.47
2023-01-05T01:12:54.570Z,3.07
2023-01-05T01:15:22.725Z,3.43
2023-01-05T01:17:52.217Z,3.47
2023-01-05T01:20:20.486Z,3.57
2023-01-05T01:22:48.684Z,3.13
2023-01-05T01:25:16.915Z,3.00
2023-01-05T01:27:45.046Z,3.33
2023-01-05T01:30:13.876Z,3.50
2023-01-05T01:32:41.996Z,3.27
2023-01-05T01:35:11.683Z,3.47
2023-01-05T01:37:39.818Z,3.57
2023-01-05T01:40:08.941Z,3.40
2023-01-05T01:42:37.099Z,3.33
2023-01-05T01:45:13.805Z,3.30
2023-01-05T01:47:43.726Z,3.67
2023-01-05T01:50:15.983Z,3.33
2023-01-05T01:52:46.084Z,3.27
2023-01-05T01:55:15.210Z,3.17
2023-01-05T01:57:43.728Z,3.43
2023-01-05T02:00:15.252Z,3.40
2023-01-05T02:02:43.462Z,3.33
2023-01-05T02:05:13.325Z,3.83
2023-01-05T02:07:47.358Z,3.63
2023-01-05T02:10:15.689Z,3.60
2023-01-05T02:12:50.443Z,3.50
2023-01-05T02:15:23.676Z,2.73
2023-01-05T02:17:56.467Z,4.73
2023-01-05T02:20:42.430Z,3.27
2023-01-05T02:23:20.054Z,4.33
2023-01-05T02:26:02.751Z,4.30
2023-01-05T02:28:41.211Z,3.83
2023-01-05T02:31:13.552Z,3.57
2023-01-05T02:34:08.616Z,3.30
2023-01-05T02:36:41.291Z,3.80
2023-01-05T02:39:14.043Z,3.73
2023-01-05T02:41:43.520Z,4.23
2023-01-05T02:44:12.020Z,3.90
2023-01-05T02:46:41.645Z,4.30
2023-01-05T02:49:10.247Z,3.80
2023-01-05T02:51:40.666Z,3.50
2023-01-05T02:54:11.892Z,4.17
2023-01-05T02:56:42.684Z,4.40
2023-01-05T02:59:12.333Z,4.30
2023-01-05T03:01:43.270Z,4.80
2023-01-05T03:04:14.261Z,3.77
2023-01-05T03:06:47.750Z,4.23
2023-01-05T03:09:16.787Z,3.70
2023-01-05T03:12:05.344Z,3.83
2023-01-05T03:14:34.652Z,4.30
2023-01-05T03:17:05.949Z,4.27
2023-01-05T03:19:39.463Z,3.40
2023-01-05T03:22:29.669Z,4.00
2023-01-05T03:25:15.735Z,3.77
2023-01-05T03:28:02.207Z,3.73
2023-01-05T03:30:53.581Z,4.17
2023-01-05T03:33:44.732Z,4.20
2023-01-05T03:36:14.771Z,4.17
2023-01-05T03:38:44.952Z,4.60
2023-01-05T03:41:14.517Z,4.73
2023-01-05T03:43:43.629Z,3.47
2023-01-05T03:46:12.666Z,3.73
2023-01-05T03:48:42.267Z,4.50
2023-01-05T03:51:10.626Z,6.37
2023-01-05T03:53:38.761Z,3.93
2023-01-05T03:56:07.037Z,3.90
2023-01-05T03:58:35.214Z,4.63
2023-01-05T04:01:03.503Z,3.97
2023-01-05T04:03:32.445Z,4.17
2023-01-05T04:06:02.531Z,4.10
2023-01-05T04:08:30.794Z,4.03
2023-01-05T04:10:58.992Z,4.13
2023-01-05T04:13:27.152Z,4.60
2023-01-05T04:15:55.411Z,4.13
2023-01-05T04:18:23.576Z,4.63
2023-01-05T04:20:51.723Z,3.87
2023-01-05T04:23:21.211Z,3.67
2023-01-05T04:25:49.462Z,5.03
2023-01-05T04:28:17.733Z,3.60
2023-01-05T04:30:45.955Z,4.97
2023-01-05T04:33:14.101Z,4.17
2023-01-05T04:35:42.276Z,3.77
2023-01-05T04:38:10.445Z,4.20
2023-01-05T04:40:39.961Z,3.83
2023-01-05T04:43:08.479Z,4.10
2023-01-05T04:45:36.635Z,4.00
2023-01-05T04:48:04.814Z,3.90
2023-01-05T04:50:32.951Z,4.03
2023-01-05T04:53:01.113Z,3.67
2023-01-05T04:55:29.255Z,3.70
2023-01-05T04:57:58.733Z,4.03
2023-01-05T05:00:26.901Z,4.57
2023-01-05T05:02:55.082Z,4.17
2023-01-05T05:05:23.315Z,3.87
2023-01-05T05:07:51.502Z,3.40
2023-01-05T05:10:19.796Z,3.73
2023-01-05T05:12:48.057Z,4.77
2023-01-05T05:15:17.689Z,3.77
2023-01-05T05:17:45.991Z,4.20
2023-01-05T05:20:14.146Z,5.13
2023-01-05T05:22:42.301Z,3.80
2023-01-05T05:25:10.595Z,3.97
2023-01-05T05:27:38.751Z,3.60
2023-01-05T05:30:07.435Z,4.27
2023-01-05T05:32:42.358Z,3.80
2023-01-05T05:35:12.293Z,4.30
2023-01-05T05:37:40.461Z,4.93
2023-01-05T05:40:09.167Z,5.77
2023-01-05T05:42:37.335Z,4.87
2023-01-05T05:45:05.823Z,4.40
2023-01-05T05:47:34.134Z,5.23
2023-01-05T05:50:03.606Z,4.33
2023-01-05T05:52:31.746Z,4.53
2023-01-05T05:54:59.894Z,4.43
2023-01-05T05:57:28.047Z,3.50
2023-01-05T05:59:56.198Z,5.10
2023-01-05T06:02:24.405Z,4.43
2023-01-05T06:04:52.569Z,4.17
2023-01-05T06:07:22.078Z,4.70
2023-01-05T06:09:50.251Z,4.10
2023-01-05T06:12:18.451Z,5.33
2023-01-05T06:14:46.836Z,4.77
2023-01-05T06:17:15.000Z,4.63
2023-01-05T06:19:43.175Z,4.77
2023-01-05T06:22:11.347Z,5.03
2023-01-05T06:24:41.004Z,4.67
2023-01-05T06:27:10.745Z,4.07
2023-01-05T06:29:38.867Z,4.57
2023-01-05T06:32:07.404Z,4.10
2023-01-05T06:34:35.560Z,4.67
2023-01-05T06:37:05.624Z,4.30
2023-01-05T06:39:33.787Z,6.20
2023-01-05T06:42:03.289Z,5.70
2023-01-05T06:44:31.426Z,5.50
2023-01-05T06:46:59.594Z,4.53
2023-01-05T06:49:27.748Z,4.97
2023-01-05T06:51:56.927Z,4.90
2023-01-05T06:54:25.115Z,4.23
2023-01-05T06:56:53.265Z,4.73
2023-01-05T06:59:22.752Z,5.57
2023-01-05T07:01:50.977Z,4.73
2023-01-05T07:04:19.326Z,4.37
2023-01-05T07:06:47.548Z,5.53
2023-01-05T07:09:15.797Z,5.60
2023-01-05T07:11:43.930Z,4.20
2023-01-05T07:14:12.204Z,4.87
2023-01-05T07:16:41.724Z,4.50
2023-01-05T07:19:09.927Z,5.43
2023-01-05T07:21:38.084Z,4.83
2023-01-05T07:24:06.494Z,5.43
2023-01-05T07:26:34.646Z,4.90
2023-01-05T07:29:02.802Z,4.50
2023-01-05T07:31:30.983Z,5.90
2023-01-05T07:34:00.550Z,5.00
2023-01-05T07:36:28.739Z,5.40
2023-01-05T07:38:59.537Z,5.90
2023-01-05T07:41:27.886Z,6.50
2023-01-05T07:43:56.405Z,5.90
2023-01-05T07:46:24.672Z,5.73
2023-01-05T07:48:52.876Z,5.60
2023-01-05T07:51:22.562Z,4.63
2023-01-05T07:53:50.740Z,4.97
2023-01-05T07:56:18.909Z,5.53
2023-01-05T07:58:47.065Z,5.57
2023-01-05T08:01:17.629Z,5.30
2023-01-05T08:03:46.341Z,6.33
2023-01-05T08:06:15.484Z,5.53
2023-01-05T08:08:45.013Z,5.63
2023-01-05T08:11:15.256Z,5.20
2023-01-05T08:14:02.624Z,4.87
2023-01-05T08:16:31.801Z,5.43
2023-01-05T08:19:00.495Z,5.57
2023-01-05T08:21:28.650Z,5.10
2023-01-05T08:23:59.677Z,5.77
2023-01-05T08:26:27.905Z,5.53
2023-01-05T08:28:56.071Z,5.73
2023-01-05T08:31:26.022Z,5.17
2023-01-05T08:33:57.754Z,5.23
2023-01-05T08:36:26.060Z,4.90
2023-01-05T08:38:54.463Z,4.83
2023-01-05T08:41:24.659Z,5.77
2023-01-05T08:43:53.535Z,5.93
2023-01-05T08:46:22.184Z,6.23
2023-01-05T08:48:50.769Z,4.60
2023-01-05T08:51:19.373Z,5.37
2023-01-05T08:53:49.037Z,5.80
2023-01-05T08:56:17.237Z,4.83
2023-01-05T08:58:47.118Z,4.53
2023-01-05T09:01:16.286Z,5.57
2023-01-05T09:03:44.638Z,5.87
2023-01-05T09:06:13.768Z,5.33
2023-01-05T09:08:42.701Z,4.90
2023-01-05T09:11:12.250Z,4.63
2023-01-05T09:13:40.887Z,5.10
2023-01-05T09:16:11.495Z,5.37
2023-01-05T09:18:40.013Z,6.17
2023-01-05T09:21:08.598Z,5.30
2023-01-05T09:23:36.973Z,5.00
2023-01-05T09:26:05.455Z,5.10
2023-01-05T09:28:35.556Z,4.67
2023-01-05T09:31:07.960Z,5.37
2023-01-05T09:33:37.619Z,4.73
2023-01-05T09:36:05.944Z,5.50
2023-01-05T09:38:34.123Z,5.07
2023-01-05T09:41:04.377Z,5.20
2023-01-05T09:43:35.973Z,4.87
2023-01-05T09:46:07.266Z,5.27
2023-01-05T09:48:38.393Z,5.00
2023-01-05T09:51:09.075Z,5.07
2023-01-05T09:53:37.346Z,4.47
2023-01-05T09:56:06.139Z,5.07
2023-01-05T09:58:37.220Z,4.73
2023-01-05T10:01:09.043Z,5.23
2023-01-05T10:04:03.514Z,4.37
2023-01-05T10:06:32.296Z,4.97
2023-01-05T10:09:00.721Z,5.07
2023-01-05T10:11:52.440Z,5.77
2023-01-05T10:14:24.299Z,4.97
2023-01-05T10:16:57.840Z,5.70
2023-01-05T10:19:35.958Z,4.80
2023-01-05T10:22:09.730Z,5.63
2023-01-05T10:24:42.554Z,5.77
2023-01-05T10:27:24.759Z,5.03
2023-01-05T10:29:56.353Z,5.10
2023-01-05T10:32:26.016Z,4.90
2023-01-05T10:34:58.659Z,5.00
2023-01-05T10:37:54.128Z,5.20
2023-01-05T10:40:32.411Z,4.87
2023-01-05T10:43:09.331Z,4.30
2023-01-05T10:46:03.095Z,5.60
2023-01-05T10:48:30.315Z,3.90
2023-01-05T10:50:59.365Z,4.53
2023-01-05T10:53:28.792Z,5.03
2023-01-05T10:56:01.903Z,5.17
2023-01-05T10:58:31.155Z,5.33
2023-01-05T11:01:00.674Z,4.80
2023-01-05T11:03:57.243Z,4.93
2023-01-05T11:06:21.513Z,4.77
2023-01-05T11:08:49.763Z,5.20
2023-01-05T11:11:24.193Z,5.30
2023-01-05T11:13:54.635Z,4.77
2023-01-05T11:16:24.450Z,5.93
2023-01-05T11:18:54.092Z,4.60
2023-01-05T11:21:23.267Z,4.73
2023-01-05T11:23:52.136Z,5.33
2023-01-05T11:26:31.919Z,5.43
2023-01-05T11:29:04.409Z,5.90
2023-01-05T11:31:37.267Z,6.23
2023-01-05T11:34:09.515Z,4.80
2023-01-05T11:36:37.941Z,6.17
2023-01-05T11:39:06.185Z,5.03
2023-01-05T11:41:37.387Z,5.10
2023-01-05T11:44:19.057Z,4.60
2023-01-05T11:46:47.289Z,6.30
2023-01-05T11:49:19.436Z,4.37
2023-01-05T11:51:47.627Z,4.80
2023-01-05T11:54:28.043Z,4.93
2023-01-05T11:57:07.982Z,5.87
2023-01-05T11:59:40.274Z,5.33
2023-01-05T12:02:18.961Z,4.97
2023-01-05T12:04:55.750Z,5.60
2023-01-05T12:07:29.309Z,5.43
2023-01-05T12:10:00.320Z,4.13
2023-01-05T12:12:41.222Z,5.43
2023-01-05T12:15:18.154Z,5.73
2023-01-05T12:17:50.396Z,4.77
2023-01-05T12:20:28.573Z,6.20
2023-01-05T12:23:14.824Z,5.23
2023-01-05T12:25:46.494Z,4.20
2023-01-05T12:28:40.931Z,4.80
2023-01-05T12:34:14.024Z,4.17
2023-01-05T12:36:54.585Z,4.43
2023-01-05T12:39:33.189Z,4.70
2023-01-05T12:42:23.252Z,4.23
2023-01-05T12:45:04.070Z,4.77
2023-01-05T12:47:45.625Z,4.57
2023-01-05T12:50:21.995Z,4.53
2023-01-05T12:52:51.512Z,5.43
2023-01-05T12:55:22.068Z,5.03
2023-01-05T12:57:54.152Z,4.43
2023-01-05T13:00:25.054Z,4.87
2023-01-05T13:02:55.940Z,4.20
2023-01-05T13:05:27.459Z,5.00
2023-01-05T13:07:57.718Z,4.57
2023-01-05T13:10:29.198Z,4.80
2023-01-05T13:12:59.276Z,4.47
2023-01-05T13:15:31.166Z,5.13
2023-01-05T13:18:00.632Z,4.60
2023-01-05T13:20:32.888Z,4.63
2023-01-05T13:23:03.266Z,4.60
2023-01-05T13:25:32.158Z,4.77
2023-01-05T13:28:00.385Z,4.53
2023-01-05T13:30:31.284Z,4.40
2023-01-05T13:33:05.952Z,4.87
2023-01-05T13:35:45.624Z,5.47
2023-01-05T13:38:32.433Z,5.23
2023-01-05T13:41:10.213Z,5.07
2023-01-05T13:43:49.128Z,5.00
2023-01-05T13:46:31.294Z,4.70
2023-01-05T13:49:13.331Z,4.40
2023-01-05T13:51:48.364Z,4.47
2023-01-05T13:54:18.884Z,4.87
2023-01-05T13:56:47.633Z,5.30
2023-01-05T13:59:34.506Z,5.20
2023-01-05T14:02:05.068Z,4.60
2023-01-05T14:04:34.860Z,5.03
2023-01-05T14:07:04.610Z,4.83
2023-01-05T14:09:34.509Z,4.50
2023-01-05T14:12:21.593Z,4.40
2023-01-05T14:15:04.760Z,5.93
2023-01-05T14:17:51.710Z,5.53
2023-01-05T14:20:39.669Z,5.93
2023-01-05T14:23:22.728Z,5.23
2023-01-05T14:25:53.851Z,4.73
2023-01-05T14:28:23.948Z,5.27
2023-01-05T14:30:52.919Z,6.07
2023-01-05T14:33:22.090Z,4.90
2023-01-05T14:35:50.312Z,4.97
2023-01-05T14:38:21.292Z,4.73
2023-01-05T14:40:51.218Z,4.83
2023-01-05T14:43:26.931Z,5.40
2023-01-05T14:46:00.346Z,5.57
2023-01-05T14:48:30.702Z,5.20
2023-01-05T14:51:24.510Z,5.40
2023-01-05T14:53:53.473Z,5.00
2023-01-05T14:56:23.700Z,6.40
2023-01-05T14:58:59.686Z,5.10
2023-01-05T15:01:29.169Z,5.20
2023-01-05T15:04:00.114Z,4.53
2023-01-05T15:06:32.741Z,4.77
2023-01-05T15:09:15.802Z,5.13
2023-01-05T15:12:11.029Z,5.57
2023-01-05T15:14:52.722Z,5.20
2023-01-05T15:17:36.510Z,4.83
2023-01-05T15:20:16.304Z,4.93
2023-01-05T15:22:51.830Z,5.97
2023-01-05T15:25:34.257Z,5.43
2023-01-05T15:28:07.429Z,6.57
2023-01-05T15:30:50.499Z,5.33
2023-01-05T15:33:30.141Z,5.10
2023-01-05T15:36:02.524Z,4.97
2023-01-05T15:38:31.453Z,3.60
2023-01-05T15:41:02.460Z,3.87
2023-01-05T15:43:30.686Z,3.70
2023-01-05T15:45:59.321Z,4.63
2023-01-05T15:48:32.750Z,3.37
2023-01-05T15:51:02.227Z,3.67
2023-01-05T15:53:32.835Z,3.17
2023-01-05T15:56:01.680Z,3.20
2023-01-05T15:58:30.930Z,3.47
2023-01-05T16:01:04.303Z,2.80
2023-01-05T16:03:34.505Z,2.80
2023-01-05T16:06:04.400Z,2.40
2023-01-05T16:08:33.470Z,2.17
2023-01-05T16:11:02.350Z,2.73
2023-01-05T16:13:34.287Z,2.17
2023-01-05T16:16:03.929Z,2.67
2023-01-05T16:18:36.233Z,2.43
2023-01-05T16:21:08.259Z,2.40
2023-01-05T16:23:39.388Z,2.53
2023-01-05T16:26:07.988Z,2.47
2023-01-05T16:28:36.142Z,2.50
2023-01-05T16:31:13.545Z,3.00
2023-01-05T16:33:43.743Z,3.53
2023-01-05T16:36:14.602Z,2.50
2023-01-05T16:38:42.747Z,3.20
2023-01-05T16:41:12.504Z,3.10
2023-01-05T16:43:45.432Z,2.60
2023-01-05T16:46:35.236Z,2.70
2023-01-05T16:49:08.376Z,3.17
2023-01-05T16:51:41.375Z,2.80
2023-01-05T16:54:14.600Z,2.77
2023-01-05T16:56:50.049Z,2.83
2023-01-05T16:59:33.013Z,3.40
2023-01-05T17:02:01.154Z,2.97
2023-01-05T17:04:30.735Z,3.50
2023-01-05T17:07:00.176Z,3.20
2023-01-05T17:09:30.503Z,2.80
2023-01-05T17:11:58.842Z,3.20
2023-01-05T17:14:28.025Z,3.17
2023-01-05T17:16:56.264Z,3.63
2023-01-05T17:19:24.485Z,3.23
2023-01-05T17:21:55.612Z,3.00
2023-01-05T17:24:24.231Z,3.07
2023-01-05T17:26:52.393Z,3.43
2023-01-05T17:29:21.463Z,3.40
2023-01-05T17:31:49.883Z,3.53
2023-01-05T17:34:18.069Z,3.50
2023-01-05T17:36:46.835Z,3.87
2023-01-05T17:39:17.166Z,3.93
2023-01-05T17:41:45.340Z,4.20
2023-01-05T17:44:13.945Z,4.07
2023-01-05T17:46:42.842Z,3.80
2023-01-05T17:49:14.040Z,3.93
2023-01-05T17:51:42.243Z,3.90
2023-01-05T17:54:10.445Z,4.40
2023-01-05T17:56:39.994Z,4.13
2023-01-05T17:59:08.451Z,4.07
2023-01-05T18:01:37.093Z,4.10
2023-01-05T18:04:05.649Z,3.83
2023-01-05T18:06:33.828Z,3.93
2023-01-05T18:09:01.992Z,3.73
2023-01-05T18:11:30.178Z,4.10
2023-01-05T18:13:59.694Z,3.50
2023-01-05T18:16:27.835Z,3.17
2023-01-05T18:18:56.010Z,3.27
2023-01-05T18:21:24.190Z,3.00
2023-01-05T18:23:52.344Z,2.43
2023-01-05T18:26:20.544Z,2.40
2023-01-05T18:28:48.669Z,2.00
2023-01-05T18:31:18.228Z,1.80
2023-01-05T18:33:46.388Z,1.80
2023-01-05T18:36:15.651Z,2.07
2023-01-05T18:38:44.063Z,2.30
2023-01-05T18:41:12.714Z,2.50
2023-01-05T18:43:41.110Z,2.50
2023-01-05T18:46:09.338Z,2.60
2023-01-05T18:48:38.886Z,2.50
2023-01-05T18:51:07.941Z,2.20
2023-01-05T18:53:38.268Z,2.10
2023-01-05T18:56:07.269Z,2.13
2023-01-05T18:58:35.403Z,2.00
2023-01-05T19:01:08.993Z,1.80
2023-01-05T19:03:38.694Z,1.73
2023-01-05T19:06:07.797Z,2.70
2023-01-05T19:08:35.917Z,2.70
2023-01-05T19:11:11.422Z,3.13
2023-01-05T19:13:40.064Z,3.60
2023-01-05T19:16:08.986Z,3.40
2023-01-05T19:18:38.480Z,3.30
2023-01-05T19:21:06.793Z,3.20
2023-01-05T19:23:34.967Z,3.70
2023-01-05T19:26:03.582Z,3.53
2023-01-05T19:28:32.216Z,3.53
2023-01-05T19:31:07.416Z,3.00
2023-01-05T19:33:35.689Z,2.80
2023-01-05T19:36:06.865Z,2.77
2023-01-05T19:38:35.614Z,3.53
2023-01-05T19:41:05.107Z,3.00
2023-01-05T19:43:33.295Z,2.90
2023-01-05T19:46:01.921Z,3.10
2023-01-05T19:48:32.940Z,2.40
2023-01-05T19:51:01.946Z,1.77
2023-01-05T19:53:31.778Z,1.77
2023-01-05T19:56:03.940Z,1.73
2023-01-05T19:58:32.091Z,1.47
2023-01-05T20:01:05.945Z,1.80
2023-01-05T20:03:34.098Z,1.80
2023-01-05T20:06:08.799Z,1.80
2023-01-05T20:08:38.473Z,2.07
2023-01-05T20:11:07.329Z,1.73
2023-01-05T20:13:35.496Z,2.40
2023-01-05T20:16:04.551Z,2.20
2023-01-05T20:18:32.725Z,2.17
2023-01-05T20:21:01.364Z,2.20
2023-01-05T20:23:33.708Z,2.50
2023-01-05T20:26:07.640Z,2.77
2023-01-05T20:28:35.804Z,2.53
2023-01-05T20:31:04.164Z,2.70
2023-01-05T20:33:32.429Z,3.23
2023-01-05T20:36:00.573Z,2.83
2023-01-05T20:38:28.740Z,2.87
2023-01-05T20:40:57.046Z,3.40
2023-01-05T20:43:26.564Z,3.27
2023-01-05T20:45:54.741Z,2.90
2023-01-05T20:48:22.869Z,3.30
2023-01-05T20:50:51.052Z,2.70
2023-01-05T20:53:19.209Z,2.50
2023-01-05T20:55:51.254Z,2.50
2023-01-05T20:58:19.388Z,2.00
2023-01-05T21:01:10.995Z,2.30
2023-01-05T21:03:38.134Z,2.10
2023-01-05T21:06:06.584Z,2.13
2023-01-05T21:08:35.216Z,2.70
2023-01-05T21:11:03.821Z,2.47
2023-01-05T21:13:33.215Z,3.30
2023-01-05T21:16:04.646Z,2.60
2023-01-05T21:18:33.511Z,2.90
2023-01-05T21:21:01.891Z,2.63
2023-01-05T21:23:30.187Z,3.03
2023-01-05T21:26:05.794Z,3.10
2023-01-05T21:28:36.032Z,3.40
2023-01-05T21:31:06.416Z,3.53
2023-01-05T21:33:36.075Z,3.03
2023-01-05T21:36:04.572Z,3.37
2023-01-05T21:39:01.338Z,3.37
2023-01-05T21:41:41.475Z,3.00
2023-01-05T21:44:10.606Z,3.40
2023-01-05T21:46:40.618Z,3.20
2023-01-05T21:49:09.913Z,3.00
2023-01-05T21:51:56.070Z,3.27
2023-01-05T21:54:42.166Z,2.77
2023-01-05T21:57:10.393Z,2.63
2023-01-05T21:59:38.593Z,3.20
2023-01-05T22:02:08.174Z,3.30
2023-01-05T22:04:36.426Z,2.53
2023-01-05T22:07:05.174Z,2.33
2023-01-05T22:09:33.322Z,2.23
2023-01-05T22:12:01.934Z,1.83
2023-01-05T22:14:30.149Z,1.60
2023-01-05T22:16:58.363Z,1.60
2023-01-05T22:19:27.849Z,1.80
2023-01-05T22:21:56.218Z,1.60
2023-01-05T22:24:24.506Z,1.57
2023-01-05T22:26:52.650Z,1.63
2023-01-05T22:29:20.890Z,1.90
2023-01-05T22:31:50.579Z,2.23
2023-01-05T22:34:18.825Z,2.03
2023-01-05T22:36:49.027Z,2.10
2023-01-05T22:39:17.381Z,2.00
2023-01-05T22:41:46.307Z,2.03
2023-01-05T22:44:14.457Z,2.20
2023-01-05T22:46:43.136Z,2.07
2023-01-05T22:49:14.128Z,1.80
2023-01-05T22:51:42.572Z,2.00
2023-01-05T22:54:12.070Z,2.20
2023-01-05T22:56:40.499Z,1.90
2023-01-05T22:59:08.732Z,2.10
2023-01-05T23:01:37.974Z,1.57
2023-01-05T23:04:07.255Z,2.00
2023-01-05T23:06:35.600Z,1.87
2023-01-05T23:09:04.573Z,1.83
2023-01-05T23:11:34.895Z,1.47
2023-01-05T23:14:04.126Z,1.83
2023-01-05T23:16:32.350Z,1.60
2023-01-05T23:19:00.948Z,2.00
2023-01-05T23:21:29.086Z,1.87
2023-01-05T23:23:58.049Z,1.47
2023-01-05T23:26:27.182Z,1.60
2023-01-05T23:28:57.003Z,1.70
2023-01-05T23:31:25.544Z,1.70
2023-01-05T23:33:54.008Z,1.63
2023-01-05T23:36:23.526Z,1.87
2023-01-05T23:38:51.987Z,2.13
2023-01-05T23:41:20.630Z,2.40
2023-01-05T23:43:48.851Z,1.70
2023-01-05T23:46:20.027Z,1.80
2023-01-05T23:48:48.814Z,2.10
2023-01-05T23:51:17.534Z,1.90
2023-01-05T23:53:46.336Z,1.80
2023-01-05T23:56:15.510Z,2.17
2023-01-05T23:58:44.075Z,1.40
